createdAt,value
2022-10-01T00:00:06.901Z,4.37
2022-10-01T00:03:11.872Z,6.83
2022-10-01T00:06:16.529Z,4.13
2022-10-01T00:09:18.381Z,7.37
2022-10-01T00:12:20.060Z,4.00
2022-10-01T00:15:21.825Z,3.80
2022-10-01T00:18:23.527Z,5.30
2022-10-01T00:21:28.805Z,3.30
2022-10-01T00:24:30.502Z,3.30
2022-10-01T00:27:32.193Z,3.03
2022-10-01T00:30:37.317Z,4.47
2022-10-01T00:33:42.780Z,6.03
2022-10-01T00:36:44.493Z,2.83
2022-10-01T00:39:46.151Z,3.03
2022-10-01T00:42:48.289Z,2.33
2022-10-01T00:45:51.709Z,3.97
2022-10-01T00:49:11.198Z,5.57
2022-10-01T00:52:18.031Z,6.77
2022-10-01T00:55:42.009Z,4.77
2022-10-01T00:58:43.909Z,3.33
2022-10-01T01:01:45.678Z,6.20
2022-10-01T01:04:48.125Z,4.10
2022-10-01T01:07:52.662Z,6.37
2022-10-01T01:11:23.111Z,5.93
2022-10-01T01:14:45.119Z,5.10
2022-10-01T01:18:22.251Z,4.73
2022-10-01T01:21:45.709Z,4.90
2022-10-01T01:24:55.858Z,4.33
2022-10-01T01:28:22.564Z,4.77
2022-10-01T01:31:34.616Z,5.87
2022-10-01T01:34:39.925Z,6.73
2022-10-01T01:37:51.625Z,3.33
2022-10-01T01:40:55.759Z,5.10
2022-10-01T01:44:01.016Z,4.47
2022-10-01T01:47:06.699Z,5.43
2022-10-01T01:50:10.787Z,5.13
2022-10-01T01:53:12.544Z,5.17
2022-10-01T01:56:14.191Z,6.03
2022-10-01T01:59:19.502Z,6.17
2022-10-01T02:02:28.039Z,6.63
2022-10-01T02:05:43.163Z,6.03
2022-10-01T02:09:07.981Z,4.83
2022-10-01T02:12:24.985Z,5.83
2022-10-01T02:15:36.900Z,5.27
2022-10-01T02:18:50.607Z,4.67
2022-10-01T02:22:27.484Z,7.80
2022-10-01T02:25:34.595Z,4.53
2022-10-01T02:28:39.516Z,8.60
2022-10-01T02:31:41.649Z,5.60
2022-10-01T02:34:46.040Z,6.53
2022-10-01T02:37:51.546Z,4.53
2022-10-01T02:40:55.559Z,4.47
2022-10-01T02:44:11.607Z,8.37
2022-10-01T02:47:36.727Z,3.47
2022-10-01T02:50:49.971Z,4.53
2022-10-01T02:53:58.240Z,4.43
2022-10-01T02:57:18.444Z,6.30
2022-10-01T03:00:23.212Z,8.17
2022-10-01T03:03:26.056Z,4.23
2022-10-01T03:06:27.973Z,5.10
2022-10-01T03:09:31.532Z,3.97
2022-10-01T03:12:33.365Z,6.07
2022-10-01T03:15:35.066Z,3.93
2022-10-01T03:18:36.780Z,3.27
2022-10-01T03:21:38.431Z,5.37
2022-10-01T03:24:40.159Z,3.93
2022-10-01T03:27:42.360Z,4.07
2022-10-01T03:30:44.989Z,3.60
2022-10-01T03:33:46.651Z,5.30
2022-10-01T03:36:48.769Z,4.50
2022-10-01T03:39:50.530Z,4.03
2022-10-01T03:42:52.184Z,5.83
2022-10-01T03:45:53.912Z,3.03
2022-10-01T03:48:57.590Z,3.40
2022-10-01T03:51:59.325Z,4.80
2022-10-01T03:55:00.943Z,3.53
2022-10-01T03:58:02.723Z,2.50
2022-10-01T04:01:04.515Z,5.33
2022-10-01T04:04:06.610Z,5.60
2022-10-01T04:07:08.248Z,3.03
2022-10-01T04:10:09.993Z,5.13
2022-10-01T04:13:11.978Z,4.10
2022-10-01T04:16:15.530Z,4.40
2022-10-01T04:19:17.283Z,7.07
2022-10-01T04:22:18.945Z,3.97
2022-10-01T04:25:20.610Z,2.73
2022-10-01T04:28:22.308Z,4.03
2022-10-01T04:31:27.238Z,4.07
2022-10-01T04:34:48.264Z,3.63
2022-10-01T04:38:03.416Z,2.07
2022-10-01T04:41:05.308Z,3.00
2022-10-01T04:44:06.989Z,3.80
2022-10-01T04:47:09.059Z,2.83
2022-10-01T04:50:10.747Z,2.13
2022-10-01T04:53:20.613Z,3.00
2022-10-01T04:56:22.384Z,2.63
2022-10-01T04:59:25.578Z,2.37
2022-10-01T05:02:29.316Z,8.57
2022-10-01T05:05:32.993Z,1.20
2022-10-01T05:08:41.283Z,2.70
2022-10-01T05:11:42.956Z,3.33
2022-10-01T05:14:44.598Z,3.47
2022-10-01T05:17:46.911Z,2.43
2022-10-01T05:20:48.534Z,3.63
2022-10-01T05:23:50.198Z,1.87
2022-10-01T05:26:53.998Z,2.13
2022-10-01T05:29:56.304Z,2.00
2022-10-01T05:33:00.463Z,2.10
2022-10-01T05:36:05.000Z,3.97
2022-10-01T05:39:06.697Z,2.23
2022-10-01T05:42:08.365Z,2.37
2022-10-01T05:45:10.489Z,1.90
2022-10-01T05:48:12.766Z,4.53
2022-10-01T05:51:15.116Z,2.43
2022-10-01T05:54:19.529Z,2.63
2022-10-01T05:57:21.186Z,3.33
2022-10-01T06:00:23.072Z,2.03
2022-10-01T06:03:26.945Z,3.00
2022-10-01T06:06:28.680Z,3.27
2022-10-01T06:09:30.383Z,3.27
2022-10-01T06:12:34.220Z,3.63
2022-10-01T06:15:38.130Z,3.30
2022-10-01T06:18:41.148Z,3.87
2022-10-01T06:21:42.789Z,3.50
2022-10-01T06:24:45.433Z,1.87
2022-10-01T06:28:00.963Z,6.70
2022-10-01T06:31:03.345Z,3.67
2022-10-01T06:34:05.171Z,3.03
2022-10-01T06:37:06.801Z,2.57
2022-10-01T06:40:08.983Z,4.60
2022-10-01T06:43:10.681Z,3.70
2022-10-01T06:46:12.476Z,3.27
2022-10-01T06:49:14.161Z,5.37
2022-10-01T06:52:34.619Z,2.63
2022-10-01T06:55:37.600Z,2.77
2022-10-01T06:58:39.292Z,4.50
2022-10-01T07:01:41.082Z,4.93
2022-10-01T07:04:42.791Z,8.93
2022-10-01T07:07:49.037Z,6.30
2022-10-01T07:10:50.675Z,4.50
2022-10-01T07:13:54.567Z,6.67
2022-10-01T07:16:56.539Z,5.67
2022-10-01T07:19:58.553Z,8.37
2022-10-01T07:23:01.692Z,6.70
2022-10-01T07:26:08.633Z,7.33
2022-10-01T07:29:10.594Z,7.20
2022-10-01T07:32:12.295Z,7.00
2022-10-01T07:35:14.390Z,9.97
2022-10-01T07:38:16.552Z,5.23
2022-10-01T07:41:18.333Z,5.90
2022-10-01T07:44:20.221Z,3.83
2022-10-01T07:47:22.176Z,3.57
2022-10-01T07:50:25.242Z,4.23
2022-10-01T07:53:27.513Z,4.87
2022-10-01T07:56:29.381Z,3.80
2022-10-01T07:59:31.255Z,6.57
2022-10-01T08:02:33.000Z,5.37
2022-10-01T08:05:36.569Z,6.33
2022-10-01T08:08:38.215Z,5.97
2022-10-01T08:11:39.840Z,3.30
2022-10-01T08:14:41.759Z,2.23
2022-10-01T08:17:44.542Z,4.87
2022-10-01T08:20:46.407Z,2.57
2022-10-01T08:23:48.401Z,5.50
2022-10-01T08:26:55.846Z,3.23
2022-10-01T08:29:57.544Z,4.57
2022-10-01T08:33:01.820Z,3.93
2022-10-01T08:36:04.882Z,3.40
2022-10-01T08:39:06.639Z,3.37
2022-10-01T08:42:35.053Z,2.87
2022-10-01T08:45:44.867Z,8.03
2022-10-01T08:48:57.316Z,6.23
2022-10-01T08:52:09.596Z,5.83
2022-10-01T08:55:16.031Z,7.57
2022-10-01T08:58:25.496Z,6.43
2022-10-01T09:01:28.328Z,3.80
2022-10-01T09:04:30.120Z,4.23
2022-10-01T09:07:56.443Z,10.20
2022-10-01T09:11:06.939Z,4.47
2022-10-01T09:14:17.484Z,6.33
2022-10-01T09:17:42.904Z,8.43
2022-10-01T09:20:58.854Z,3.77
2022-10-01T09:24:10.580Z,7.27
2022-10-01T09:27:23.099Z,9.33
2022-10-01T09:30:26.124Z,7.73
2022-10-01T09:33:38.169Z,5.13
2022-10-01T09:36:42.949Z,4.60
2022-10-01T09:40:03.093Z,8.73
2022-10-01T09:43:08.701Z,5.73
2022-10-01T09:46:14.994Z,4.30
2022-10-01T09:49:27.530Z,5.33
2022-10-01T09:52:38.065Z,12.13
2022-10-01T09:55:42.087Z,4.97
2022-10-01T09:58:50.443Z,11.37
2022-10-01T10:01:57.977Z,32.40
2022-10-01T10:05:13.895Z,11.53
2022-10-01T10:08:34.492Z,7.00
2022-10-01T10:11:36.607Z,6.67
2022-10-01T10:14:42.038Z,4.67
2022-10-01T10:17:50.100Z,7.13
2022-10-01T10:20:53.893Z,11.17
2022-10-01T10:24:04.523Z,6.30
2022-10-01T10:27:26.882Z,3.67
2022-10-01T10:30:29.121Z,4.70
2022-10-01T10:33:30.799Z,9.00
2022-10-01T10:36:35.902Z,5.13
2022-10-01T10:39:40.980Z,5.47
2022-10-01T10:42:51.531Z,4.20
2022-10-01T10:45:56.252Z,5.60
2022-10-01T10:49:05.902Z,6.23
2022-10-01T10:52:29.844Z,2.87
2022-10-01T10:55:31.939Z,2.60
2022-10-01T10:58:40.200Z,1.83
2022-10-01T11:01:43.454Z,2.27
2022-10-01T11:04:47.392Z,3.87
2022-10-01T11:07:53.680Z,1.57
2022-10-01T11:11:02.166Z,2.37
2022-10-01T11:14:36.137Z,2.87
2022-10-01T11:17:56.586Z,3.23
2022-10-01T11:21:26.022Z,3.27
2022-10-01T11:24:33.706Z,2.73
2022-10-01T11:28:03.369Z,2.17
2022-10-01T11:31:18.422Z,1.83
2022-10-01T11:34:37.809Z,2.33
2022-10-01T11:37:54.273Z,2.37
2022-10-01T11:41:03.752Z,4.27
2022-10-01T11:44:16.425Z,1.43
2022-10-01T11:47:31.724Z,2.47
2022-10-01T11:50:43.470Z,1.50
2022-10-01T11:53:54.402Z,3.37
2022-10-01T11:57:16.864Z,4.43
2022-10-01T12:00:18.627Z,4.30
2022-10-01T12:03:28.629Z,2.70
2022-10-01T12:06:43.303Z,4.23
2022-10-01T12:10:26.552Z,2.43
2022-10-01T12:13:41.157Z,4.03
2022-10-01T12:16:58.306Z,1.70
2022-10-01T12:20:04.440Z,4.23
2022-10-01T12:23:13.271Z,1.60
2022-10-01T12:26:55.709Z,2.40
2022-10-01T12:30:09.615Z,4.70
2022-10-01T12:33:32.812Z,3.40
2022-10-01T12:36:45.391Z,4.17
2022-10-01T12:39:54.079Z,8.73
2022-10-01T12:43:35.738Z,3.93
2022-10-01T12:46:52.708Z,4.83
2022-10-01T12:50:19.960Z,7.80
2022-10-01T12:53:49.786Z,5.87
2022-10-01T12:57:11.655Z,5.93
2022-10-01T13:00:31.796Z,4.83
2022-10-01T13:03:51.293Z,5.77
2022-10-01T13:07:03.155Z,8.73
2022-10-01T13:10:07.744Z,1.40
2022-10-01T13:13:22.054Z,4.10
2022-10-01T13:16:33.521Z,4.67
2022-10-01T13:19:48.035Z,6.43
2022-10-01T13:23:08.992Z,10.37
2022-10-01T13:26:17.415Z,4.93
2022-10-01T13:29:25.924Z,7.13
2022-10-01T13:32:35.328Z,5.83
2022-10-01T13:35:40.136Z,8.13
2022-10-01T13:38:44.176Z,9.57
2022-10-01T13:41:45.877Z,6.80
2022-10-01T13:44:53.212Z,3.03
2022-10-01T13:48:29.619Z,4.60
2022-10-01T13:51:39.151Z,7.20
2022-10-01T13:54:50.511Z,4.60
2022-10-01T13:58:05.656Z,6.70
2022-10-01T14:01:21.308Z,3.10
2022-10-01T14:04:38.243Z,9.17
2022-10-01T14:07:40.174Z,6.60
2022-10-01T14:11:09.717Z,13.07
2022-10-01T14:14:37.511Z,4.77
2022-10-01T14:17:40.007Z,4.20
2022-10-01T14:21:02.435Z,3.80
2022-10-01T14:24:12.869Z,1.90
2022-10-01T14:27:29.187Z,6.20
2022-10-01T14:31:00.045Z,4.33
2022-10-01T14:34:17.029Z,2.93
2022-10-01T14:37:19.870Z,10.13
2022-10-01T14:40:23.976Z,6.33
2022-10-01T14:43:30.930Z,3.90
2022-10-01T14:46:36.108Z,7.77
2022-10-01T14:49:38.003Z,1.87
2022-10-01T14:52:45.496Z,3.77
2022-10-01T14:55:49.796Z,3.07
2022-10-01T14:59:03.988Z,6.87
2022-10-01T15:02:19.087Z,5.70
2022-10-01T15:05:27.508Z,2.43
2022-10-01T15:08:47.642Z,9.13
2022-10-01T15:11:51.109Z,5.03
2022-10-01T15:14:56.555Z,5.97
2022-10-01T15:17:58.484Z,5.53
2022-10-01T15:21:06.318Z,4.60
2022-10-01T15:24:18.392Z,5.23
2022-10-01T15:27:21.453Z,7.23
2022-10-01T15:30:26.685Z,3.40
2022-10-01T15:33:31.315Z,9.60
2022-10-01T15:36:35.475Z,4.40
2022-10-01T15:39:40.157Z,6.53
2022-10-01T15:43:08.778Z,8.40
2022-10-01T15:46:28.956Z,7.00
2022-10-01T15:49:30.817Z,9.10
2022-10-01T15:52:54.590Z,4.40
2022-10-01T15:56:07.461Z,1.93
2022-10-01T15:59:17.411Z,7.40
2022-10-01T16:02:24.247Z,7.53
2022-10-01T16:05:37.720Z,6.67
2022-10-01T16:09:03.472Z,8.13
2022-10-01T16:12:20.821Z,4.30
2022-10-01T16:15:28.204Z,6.80
2022-10-01T16:18:32.731Z,2.40
2022-10-01T16:21:40.612Z,4.17
2022-10-01T16:24:46.273Z,5.27
2022-10-01T16:27:50.491Z,3.63
2022-10-01T16:30:52.231Z,8.17
2022-10-01T16:33:53.864Z,8.20
2022-10-01T16:36:55.587Z,5.13
2022-10-01T16:39:57.243Z,7.23
2022-10-01T16:43:00.299Z,7.73
2022-10-01T16:46:02.123Z,5.00
2022-10-01T16:49:10.915Z,5.03
2022-10-01T16:52:14.098Z,6.30
2022-10-01T16:55:22.953Z,8.17
2022-10-01T16:58:24.830Z,12.67
2022-10-01T17:01:26.739Z,7.77
2022-10-01T17:04:34.074Z,5.87
2022-10-01T17:07:35.925Z,8.43
2022-10-01T17:11:01.852Z,5.57
2022-10-01T17:14:03.521Z,6.47
2022-10-01T17:17:05.189Z,9.70
2022-10-01T17:20:08.073Z,8.37
2022-10-01T17:23:11.442Z,3.27
2022-10-01T17:26:13.164Z,6.73
2022-10-01T17:29:14.829Z,5.93
2022-10-01T17:32:19.175Z,6.30
2022-10-01T17:35:21.033Z,14.10
2022-10-01T17:38:23.222Z,10.37
2022-10-01T17:41:25.081Z,5.27
2022-10-01T17:44:26.843Z,9.33
2022-10-01T17:47:28.721Z,8.07
2022-10-01T17:50:30.363Z,21.83
2022-10-01T17:53:39.719Z,23.03
2022-10-01T17:56:44.122Z,34.10
2022-10-01T17:59:45.863Z,31.83
2022-10-01T18:02:47.643Z,23.37
2022-10-01T18:05:50.760Z,12.47
2022-10-01T18:08:55.914Z,16.50
2022-10-01T18:11:58.062Z,14.90
2022-10-01T18:15:00.855Z,16.73
2022-10-01T18:19:45.725Z,13.67
2022-10-01T18:21:24.204Z,15.30
2022-10-01T18:24:25.933Z,16.23
2022-10-01T18:27:27.594Z,8.83
2022-10-01T18:30:29.433Z,10.67
2022-10-01T18:33:31.165Z,12.43
2022-10-01T18:36:51.139Z,7.27
2022-10-01T18:40:20.762Z,9.60
2022-10-01T18:43:24.999Z,11.60
2022-10-01T18:46:38.924Z,8.33
2022-10-01T18:50:15.746Z,8.23
2022-10-01T18:53:46.393Z,8.83
2022-10-01T18:56:54.073Z,5.00
2022-10-01T19:00:21.713Z,9.60
2022-10-01T19:03:53.433Z,5.17
2022-10-01T19:07:24.950Z,9.33
2022-10-01T19:10:48.738Z,8.17
2022-10-01T19:14:14.642Z,10.90
2022-10-01T19:17:41.328Z,6.30
2022-10-01T19:21:14.555Z,8.83
2022-10-01T19:24:47.657Z,12.33
2022-10-01T19:27:58.221Z,9.20
2022-10-01T19:31:19.686Z,9.57
2022-10-01T19:34:50.468Z,9.60
2022-10-01T19:37:58.117Z,12.60
2022-10-01T19:41:12.291Z,14.47
2022-10-01T19:44:39.771Z,12.87
2022-10-01T19:47:46.765Z,10.87
2022-10-01T19:50:54.754Z,7.83
2022-10-01T19:54:01.316Z,11.33
2022-10-01T19:57:17.113Z,9.80
2022-10-01T20:00:21.760Z,9.47
2022-10-01T20:03:26.589Z,16.33
2022-10-01T20:06:33.806Z,12.73
2022-10-01T20:09:45.793Z,11.13
2022-10-01T20:13:14.433Z,10.27
2022-10-01T20:16:36.154Z,6.53
2022-10-01T20:20:01.467Z,8.43
2022-10-01T20:23:21.891Z,9.17
2022-10-01T20:26:42.408Z,13.77
2022-10-01T20:29:52.116Z,8.13
2022-10-01T20:33:14.010Z,12.73
2022-10-01T20:36:25.933Z,7.90
2022-10-01T20:39:34.033Z,9.57
2022-10-01T20:42:41.609Z,6.77
2022-10-01T20:45:47.090Z,15.30
2022-10-01T20:48:56.637Z,6.00
2022-10-01T20:52:13.405Z,9.07
2022-10-01T20:55:26.392Z,18.23
2022-10-01T20:58:50.179Z,14.30
2022-10-01T21:02:16.162Z,14.93
2022-10-01T21:05:26.690Z,7.00
2022-10-01T21:08:32.865Z,13.53
2022-10-01T21:11:52.704Z,7.93
2022-10-01T21:14:55.925Z,9.67
2022-10-01T21:18:11.636Z,11.00
2022-10-01T21:21:19.474Z,6.50
2022-10-01T21:24:44.071Z,12.00
2022-10-01T21:28:18.515Z,9.47
2022-10-01T21:31:38.549Z,11.70
2022-10-01T21:35:30.597Z,11.37
2022-10-01T21:38:58.679Z,11.57
2022-10-01T21:42:16.490Z,8.60
2022-10-01T21:45:46.130Z,7.33
2022-10-01T21:49:12.396Z,10.47
2022-10-01T21:52:34.757Z,8.93
2022-10-01T21:56:08.750Z,5.60
2022-10-01T21:59:59.333Z,10.17
2022-10-01T22:03:09.955Z,9.63
2022-10-01T22:06:16.184Z,7.33
2022-10-01T22:09:59.612Z,7.07
2022-10-01T22:13:08.693Z,7.97
2022-10-01T22:16:14.330Z,12.43
2022-10-01T22:19:25.544Z,8.40
2022-10-01T22:22:38.556Z,13.43
2022-10-01T22:26:03.413Z,9.87
2022-10-01T22:29:10.811Z,8.90
2022-10-01T22:32:15.259Z,7.67
2022-10-01T22:35:32.610Z,15.53
2022-10-01T22:38:39.601Z,10.00
2022-10-01T22:41:48.810Z,19.70
2022-10-01T22:44:50.488Z,8.93
2022-10-01T22:48:13.497Z,10.07
2022-10-01T22:51:29.194Z,8.73
2022-10-01T22:54:58.285Z,6.53
2022-10-01T22:58:06.220Z,7.77
2022-10-01T23:01:33.898Z,15.67
2022-10-01T23:05:01.443Z,16.70
2022-10-01T23:08:35.798Z,11.93
2022-10-01T23:12:24.177Z,12.63
2022-10-01T23:15:37.805Z,11.63
2022-10-01T23:19:17.436Z,15.73
2022-10-01T23:22:46.405Z,13.80
2022-10-01T23:26:26.452Z,9.83
2022-10-01T23:29:46.881Z,6.93
2022-10-01T23:33:00.429Z,7.70
2022-10-01T23:36:20.731Z,9.00
2022-10-01T23:39:25.107Z,10.13
2022-10-01T23:42:42.189Z,10.07
2022-10-01T23:45:49.252Z,8.10
2022-10-01T23:49:04.916Z,8.27
2022-10-01T23:52:25.258Z,13.30
2022-10-01T23:55:59.213Z,13.77
2022-10-01T23:59:03.084Z,7.07
